N301RH KTEX-KJAC
Flight info
| Callsign | N301RH |
|---|---|
| Flight time | 1h 5m |
| Altitude | 43000 |
| Route | JNC BPI |
| Aircraft | C700/M-SBDGHM1RWXY/LB2 |
Departure
| Time | 2026-04-30 21:05 |
|---|---|
| Airport | Telluride Regional Airport (KTEX) |
Arrival
| Time | 2026-04-30 22:10 |
|---|---|
| Airport | Jackson Hole Airport (KJAC) |
| Time | Latitude | Longitude | Altitude | Speed | Heading |
|---|---|---|---|---|---|
| 2026-04-30 20:44 | 37.95397 | -107.90166 | 9052 ft | 0 kts | 16° |
| 2026-04-30 20:55 | 37.95386 | -107.90170 | 9052 ft | 4 kts | 23° |
| 2026-04-30 20:55 | 37.95365 | -107.90188 | 9052 ft | 4 kts | 58° |
| 2026-04-30 20:55 | 37.95357 | -107.90218 | 9052 ft | 4 kts | 98° |
| 2026-04-30 20:56 | 37.95358 | -107.90227 | 9052 ft | 0 kts | 104° |
| 2026-04-30 21:02 | 37.95356 | -107.90215 | 9052 ft | 7 kts | 104° |
| 2026-04-30 21:02 | 37.95342 | -107.90143 | 9055 ft | 9 kts | 103° |
| 2026-04-30 21:02 | 37.95326 | -107.90060 | 9055 ft | 10 kts | 103° |
| 2026-04-30 21:02 | 37.95313 | -107.89987 | 9056 ft | 7 kts | 103° |
| 2026-04-30 21:03 | 37.95304 | -107.89940 | 9058 ft | 4 kts | 103° |
| 2026-04-30 21:03 | 37.95290 | -107.89884 | 9061 ft | 15 kts | 107° |
| 2026-04-30 21:03 | 37.95261 | -107.89759 | 9066 ft | 13 kts | 107° |
| 2026-04-30 21:03 | 37.95221 | -107.89673 | 9070 ft | 10 kts | 160° |
| 2026-04-30 21:04 | 37.95154 | -107.89685 | 9070 ft | 12 kts | 200° |
| 2026-04-30 21:04 | 37.95145 | -107.89788 | 9065 ft | 15 kts | 285° |
| 2026-04-30 21:04 | 37.95484 | -107.91366 | 9048 ft | 172 kts | 286° |
| 2026-04-30 21:05 | 37.95819 | -107.93003 | 9693 ft | 215 kts | 284° |
| 2026-04-30 21:05 | 37.96291 | -107.94964 | 10609 ft | 247 kts | 299° |
| 2026-04-30 21:05 | 37.97587 | -107.96469 | 11677 ft | 267 kts | 332° |
| 2026-04-30 21:05 | 37.99367 | -107.97422 | 12911 ft | 289 kts | 337° |
| 2026-04-30 21:06 | 38.01247 | -107.98504 | 14300 ft | 304 kts | 331° |
| 2026-04-30 21:06 | 38.03100 | -107.99913 | 15776 ft | 317 kts | 326° |
| 2026-04-30 21:06 | 38.04334 | -108.00937 | 16749 ft | 322 kts | 325° |
| 2026-04-30 21:06 | 38.06927 | -108.02952 | 18716 ft | 330 kts | 327° |
| 2026-04-30 21:07 | 38.08249 | -108.03922 | 19690 ft | 331 kts | 327° |
| 2026-04-30 21:07 | 38.10237 | -108.05399 | 21160 ft | 331 kts | 326° |
| 2026-04-30 21:07 | 38.12197 | -108.06899 | 22617 ft | 327 kts | 325° |
| 2026-04-30 21:07 | 38.14130 | -108.08383 | 24037 ft | 322 kts | 325° |
| 2026-04-30 21:08 | 38.16034 | -108.09827 | 25402 ft | 314 kts | 324° |
| 2026-04-30 21:08 | 38.17889 | -108.11231 | 26676 ft | 305 kts | 322° |
| 2026-04-30 21:08 | 38.19685 | -108.12598 | 27897 ft | 297 kts | 320° |
| 2026-04-30 21:08 | 38.21429 | -108.13927 | 29046 ft | 287 kts | 317° |
| 2026-04-30 21:09 | 38.23133 | -108.15221 | 30134 ft | 282 kts | 316° |
| 2026-04-30 21:09 | 38.24795 | -108.16487 | 31192 ft | 274 kts | 314° |
| 2026-04-30 21:09 | 38.26383 | -108.17705 | 32181 ft | 266 kts | 313° |
| 2026-04-30 21:09 | 38.27965 | -108.18914 | 33118 ft | 258 kts | 312° |
| 2026-04-30 21:10 | 38.29468 | -108.20055 | 33962 ft | 252 kts | 311° |
| 2026-04-30 21:10 | 38.30948 | -108.21191 | 34732 ft | 245 kts | 310° |
| 2026-04-30 21:10 | 38.32392 | -108.22293 | 35455 ft | 240 kts | 310° |
| 2026-04-30 21:10 | 38.33807 | -108.23377 | 36099 ft | 234 kts | 310° |
| 2026-04-30 21:11 | 38.35192 | -108.24444 | 36660 ft | 232 kts | 310° |
| 2026-04-30 21:11 | 38.36630 | -108.25572 | 36669 ft | 253 kts | 311° |
| 2026-04-30 21:11 | 38.38191 | -108.26781 | 36715 ft | 272 kts | 313° |
| 2026-04-30 21:11 | 38.39867 | -108.28055 | 36761 ft | 290 kts | 314° |
| 2026-04-30 21:12 | 38.41648 | -108.29411 | 36799 ft | 306 kts | 315° |
| 2026-04-30 21:12 | 38.43517 | -108.30847 | 36832 ft | 321 kts | 315° |
| 2026-04-30 21:12 | 38.45477 | -108.32353 | 36855 ft | 337 kts | 316° |
| 2026-04-30 21:12 | 38.47529 | -108.33928 | 36878 ft | 352 kts | 316° |
| 2026-04-30 21:13 | 38.49673 | -108.35574 | 36893 ft | 366 kts | 317° |
| 2026-04-30 21:13 | 38.51897 | -108.37284 | 36907 ft | 379 kts | 317° |
| 2026-04-30 21:13 | 38.54171 | -108.39034 | 36941 ft | 392 kts | 318° |
| 2026-04-30 21:13 | 38.56543 | -108.40859 | 37078 ft | 401 kts | 319° |
| 2026-04-30 21:14 | 38.58938 | -108.42696 | 37539 ft | 401 kts | 319° |
| 2026-04-30 21:14 | 38.61327 | -108.44532 | 37989 ft | 401 kts | 319° |
| 2026-04-30 21:14 | 38.63713 | -108.46379 | 38432 ft | 401 kts | 319° |
| 2026-04-30 21:14 | 38.66098 | -108.48230 | 38803 ft | 401 kts | 319° |
| 2026-04-30 21:15 | 38.68483 | -108.50074 | 39237 ft | 401 kts | 319° |
| 2026-04-30 21:15 | 38.70872 | -108.51920 | 39565 ft | 402 kts | 319° |
| 2026-04-30 21:15 | 38.73269 | -108.53779 | 39865 ft | 403 kts | 320° |
| 2026-04-30 21:15 | 38.75677 | -108.55648 | 40161 ft | 405 kts | 320° |
| 2026-04-30 21:16 | 38.78089 | -108.57519 | 40472 ft | 406 kts | 320° |
| 2026-04-30 21:16 | 38.80516 | -108.59403 | 40773 ft | 407 kts | 320° |
| 2026-04-30 21:16 | 38.82936 | -108.61283 | 41092 ft | 407 kts | 320° |
| 2026-04-30 21:16 | 38.85364 | -108.63175 | 41365 ft | 409 kts | 321° |
| 2026-04-30 21:17 | 38.87797 | -108.65070 | 41639 ft | 410 kts | 321° |
| 2026-04-30 21:17 | 38.90239 | -108.66970 | 41924 ft | 411 kts | 321° |
| 2026-04-30 21:17 | 38.92688 | -108.68881 | 42082 ft | 415 kts | 321° |
| 2026-04-30 21:17 | 38.95177 | -108.70829 | 42081 ft | 423 kts | 321° |
| 2026-04-30 21:18 | 39.00289 | -108.74822 | 42096 ft | 437 kts | 322° |
| 2026-04-30 21:18 | 39.05674 | -108.78761 | 42112 ft | 457 kts | 329° |
| 2026-04-30 21:19 | 39.08653 | -108.80210 | 42127 ft | 470 kts | 336° |
| 2026-04-30 21:19 | 39.11834 | -108.81341 | 42142 ft | 477 kts | 338° |
| 2026-04-30 21:19 | 39.18254 | -108.83618 | 42181 ft | 478 kts | 338° |
| 2026-04-30 21:20 | 39.24635 | -108.85890 | 42210 ft | 473 kts | 338° |
| 2026-04-30 21:20 | 39.30954 | -108.88142 | 42212 ft | 470 kts | 338° |
| 2026-04-30 21:21 | 39.37281 | -108.90405 | 42214 ft | 473 kts | 338° |
| 2026-04-30 21:22 | 39.46838 | -108.93826 | 42208 ft | 477 kts | 338° |
| 2026-04-30 21:22 | 39.56201 | -108.97179 | 42184 ft | 454 kts | 338° |
| 2026-04-30 21:23 | 39.59226 | -108.98271 | 42175 ft | 448 kts | 338° |
| 2026-04-30 21:23 | 39.68283 | -109.01541 | 42176 ft | 454 kts | 338° |
| 2026-04-30 21:24 | 39.74371 | -109.03733 | 42168 ft | 453 kts | 338° |
| 2026-04-30 21:24 | 39.80436 | -109.05933 | 42157 ft | 453 kts | 338° |
| 2026-04-30 21:25 | 39.89582 | -109.09248 | 42155 ft | 457 kts | 338° |
| 2026-04-30 21:26 | 39.98807 | -109.12601 | 42151 ft | 458 kts | 338° |
| 2026-04-30 21:27 | 40.07970 | -109.15943 | 42139 ft | 454 kts | 339° |
| 2026-04-30 21:27 | 40.14031 | -109.18159 | 42137 ft | 451 kts | 339° |
| 2026-04-30 21:28 | 40.23123 | -109.21491 | 42140 ft | 453 kts | 339° |
| 2026-04-30 21:29 | 40.32218 | -109.24832 | 42136 ft | 456 kts | 339° |
| 2026-04-30 21:30 | 40.47539 | -109.30481 | 42142 ft | 457 kts | 339° |
| 2026-04-30 21:31 | 40.62785 | -109.36131 | 42143 ft | 453 kts | 339° |
| 2026-04-30 21:32 | 40.71873 | -109.39512 | 42152 ft | 453 kts | 339° |
| 2026-04-30 21:32 | 40.77953 | -109.41779 | 42163 ft | 455 kts | 339° |
| 2026-04-30 21:33 | 40.87129 | -109.45207 | 42184 ft | 458 kts | 339° |
| 2026-04-30 21:34 | 40.93206 | -109.47483 | 42199 ft | 455 kts | 339° |
| 2026-04-30 21:34 | 41.02328 | -109.50909 | 42207 ft | 453 kts | 339° |
| 2026-04-30 21:35 | 41.08383 | -109.53189 | 42205 ft | 453 kts | 339° |
| 2026-04-30 21:35 | 41.14454 | -109.55478 | 42206 ft | 454 kts | 339° |
| 2026-04-30 21:36 | 41.20537 | -109.57777 | 42208 ft | 455 kts | 339° |
| 2026-04-30 21:37 | 41.32745 | -109.62404 | 42210 ft | 457 kts | 339° |
| 2026-04-30 21:37 | 41.38870 | -109.64731 | 42212 ft | 458 kts | 340° |
| 2026-04-30 21:38 | 41.44991 | -109.67062 | 42211 ft | 457 kts | 340° |
| 2026-04-30 21:38 | 41.51100 | -109.69393 | 42210 ft | 456 kts | 340° |
| 2026-04-30 21:39 | 41.57201 | -109.71725 | 42212 ft | 455 kts | 340° |
| 2026-04-30 21:39 | 41.63259 | -109.74046 | 42230 ft | 454 kts | 340° |
| 2026-04-30 21:40 | 41.69333 | -109.76377 | 42227 ft | 453 kts | 340° |
| 2026-04-30 21:40 | 41.75396 | -109.78709 | 42226 ft | 453 kts | 340° |
| 2026-04-30 21:41 | 41.81448 | -109.81041 | 42222 ft | 452 kts | 340° |
| 2026-04-30 21:41 | 41.87511 | -109.83383 | 42224 ft | 454 kts | 340° |
| 2026-04-30 21:42 | 41.93598 | -109.85737 | 42228 ft | 456 kts | 340° |
| 2026-04-30 21:42 | 41.99720 | -109.88110 | 42229 ft | 458 kts | 340° |
| 2026-04-30 21:43 | 42.04821 | -109.90091 | 42230 ft | 458 kts | 340° |
| 2026-04-30 21:43 | 42.11941 | -109.92862 | 41936 ft | 462 kts | 340° |
| 2026-04-30 21:44 | 42.15045 | -109.94074 | 41332 ft | 464 kts | 340° |
| 2026-04-30 21:44 | 42.18133 | -109.95275 | 40715 ft | 459 kts | 340° |
| 2026-04-30 21:44 | 42.21183 | -109.96464 | 40107 ft | 453 kts | 340° |
| 2026-04-30 21:44 | 42.24186 | -109.97637 | 39509 ft | 445 kts | 340° |
| 2026-04-30 21:45 | 42.27135 | -109.98793 | 38926 ft | 438 kts | 340° |
| 2026-04-30 21:45 | 42.30041 | -109.99931 | 38387 ft | 431 kts | 340° |
| 2026-04-30 21:45 | 42.32904 | -110.01055 | 37853 ft | 428 kts | 340° |
| 2026-04-30 21:45 | 42.35765 | -110.02180 | 37300 ft | 428 kts | 340° |
| 2026-04-30 21:46 | 42.38640 | -110.03310 | 36708 ft | 432 kts | 340° |
| 2026-04-30 21:46 | 42.41542 | -110.04451 | 36108 ft | 436 kts | 340° |
| 2026-04-30 21:46 | 42.44460 | -110.05599 | 35503 ft | 438 kts | 340° |
| 2026-04-30 21:46 | 42.47404 | -110.06759 | 34906 ft | 441 kts | 340° |
| 2026-04-30 21:47 | 42.50320 | -110.07910 | 34316 ft | 443 kts | 341° |
| 2026-04-30 21:47 | 42.53283 | -110.09078 | 33713 ft | 443 kts | 341° |
| 2026-04-30 21:47 | 42.56240 | -110.10245 | 33134 ft | 442 kts | 341° |
| 2026-04-30 21:47 | 42.59130 | -110.11602 | 32570 ft | 437 kts | 335° |
| 2026-04-30 21:48 | 42.61917 | -110.13266 | 32008 ft | 438 kts | 334° |
| 2026-04-30 21:48 | 42.64723 | -110.14913 | 31422 ft | 441 kts | 335° |
| 2026-04-30 21:48 | 42.67554 | -110.16561 | 30837 ft | 444 kts | 335° |
| 2026-04-30 21:48 | 42.70391 | -110.18230 | 30243 ft | 445 kts | 335° |
| 2026-04-30 21:49 | 42.73227 | -110.19913 | 29650 ft | 443 kts | 335° |
| 2026-04-30 21:49 | 42.76035 | -110.21571 | 29109 ft | 437 kts | 336° |
| 2026-04-30 21:49 | 42.78811 | -110.23203 | 28562 ft | 432 kts | 336° |
| 2026-04-30 21:49 | 42.81564 | -110.24829 | 28018 ft | 429 kts | 336° |
| 2026-04-30 21:50 | 42.84292 | -110.26446 | 27466 ft | 426 kts | 336° |
| 2026-04-30 21:50 | 42.86998 | -110.28052 | 26935 ft | 424 kts | 336° |
| 2026-04-30 21:50 | 42.89704 | -110.29657 | 26376 ft | 424 kts | 336° |
| 2026-04-30 21:50 | 42.92405 | -110.31259 | 25835 ft | 421 kts | 336° |
| 2026-04-30 21:51 | 42.95078 | -110.32845 | 25300 ft | 418 kts | 336° |
| 2026-04-30 21:51 | 42.97736 | -110.34426 | 24771 ft | 415 kts | 336° |
| 2026-04-30 21:51 | 43.00372 | -110.35996 | 24244 ft | 413 kts | 336° |
| 2026-04-30 21:51 | 43.03002 | -110.37563 | 23716 ft | 411 kts | 336° |
| 2026-04-30 21:52 | 43.05620 | -110.39123 | 23185 ft | 409 kts | 336° |
| 2026-04-30 21:52 | 43.08207 | -110.40667 | 22662 ft | 404 kts | 336° |
| 2026-04-30 21:52 | 43.09909 | -110.41685 | 22321 ft | 401 kts | 336° |
| 2026-04-30 21:52 | 43.12442 | -110.43234 | 21817 ft | 394 kts | 334° |
| 2026-04-30 21:53 | 43.14742 | -110.45147 | 21310 ft | 378 kts | 324° |
| 2026-04-30 21:53 | 43.16676 | -110.47446 | 20820 ft | 354 kts | 315° |
| 2026-04-30 21:53 | 43.18045 | -110.49656 | 20376 ft | 269 kts | 308° |
| 2026-04-30 21:53 | 43.19106 | -110.51874 | 20059 ft | 293 kts | 301° |
| 2026-04-30 21:54 | 43.20007 | -110.54415 | 19674 ft | 298 kts | 294° |
| 2026-04-30 21:54 | 43.20723 | -110.57038 | 19263 ft | 290 kts | 298° |
| 2026-04-30 21:54 | 43.22075 | -110.59065 | 18818 ft | 296 kts | 329° |
| 2026-04-30 21:54 | 43.24091 | -110.59844 | 18416 ft | 315 kts | 359° |
| 2026-04-30 21:55 | 43.26279 | -110.59104 | 18061 ft | 334 kts | 27° |
| 2026-04-30 21:55 | 43.27977 | -110.57055 | 17706 ft | 329 kts | 53° |
| 2026-04-30 21:55 | 43.28775 | -110.54194 | 17329 ft | 319 kts | 82° |
| 2026-04-30 21:55 | 43.28481 | -110.51242 | 16939 ft | 312 kts | 111° |
| 2026-04-30 21:56 | 43.27199 | -110.48922 | 16524 ft | 305 kts | 141° |
| 2026-04-30 21:56 | 43.25284 | -110.47818 | 16124 ft | 299 kts | 172° |
| 2026-04-30 21:56 | 43.23267 | -110.48195 | 15729 ft | 292 kts | 204° |
| 2026-04-30 21:56 | 43.21735 | -110.49898 | 15315 ft | 284 kts | 236° |
| 2026-04-30 21:57 | 43.21119 | -110.52391 | 14907 ft | 275 kts | 269° |
| 2026-04-30 21:57 | 43.21278 | -110.54961 | 14518 ft | 267 kts | 270° |
| 2026-04-30 21:57 | 43.20852 | -110.57430 | 14144 ft | 266 kts | 251° |
| 2026-04-30 21:57 | 43.20234 | -110.59798 | 13802 ft | 262 kts | 254° |
| 2026-04-30 21:58 | 43.19806 | -110.62195 | 13490 ft | 257 kts | 259° |
| 2026-04-30 21:58 | 43.19470 | -110.64590 | 13135 ft | 255 kts | 260° |
| 2026-04-30 21:58 | 43.19118 | -110.66949 | 12992 ft | 246 kts | 259° |
| 2026-04-30 21:58 | 43.18756 | -110.69198 | 12984 ft | 241 kts | 258° |
| 2026-04-30 21:59 | 43.18394 | -110.71467 | 12993 ft | 248 kts | 259° |
| 2026-04-30 21:59 | 43.18028 | -110.73782 | 12993 ft | 254 kts | 259° |
| 2026-04-30 21:59 | 43.17648 | -110.76174 | 12989 ft | 259 kts | 258° |
| 2026-04-30 22:00 | 43.17072 | -110.80997 | 12978 ft | 254 kts | 274° |
| 2026-04-30 22:00 | 43.18165 | -110.85510 | 12973 ft | 251 kts | 305° |
| 2026-04-30 22:00 | 43.19333 | -110.87263 | 12973 ft | 249 kts | 321° |
| 2026-04-30 22:01 | 43.20724 | -110.88666 | 12982 ft | 249 kts | 324° |
| 2026-04-30 22:01 | 43.22151 | -110.89950 | 12970 ft | 240 kts | 335° |
| 2026-04-30 22:01 | 43.23713 | -110.90614 | 12970 ft | 232 kts | 351° |
| 2026-04-30 22:01 | 43.25313 | -110.90695 | 12976 ft | 231 kts | 6° |
| 2026-04-30 22:02 | 43.26891 | -110.90191 | 12974 ft | 236 kts | 19° |
| 2026-04-30 22:02 | 43.28464 | -110.89412 | 12771 ft | 244 kts | 19° |
| 2026-04-30 22:02 | 43.30072 | -110.88647 | 12482 ft | 245 kts | 19° |
| 2026-04-30 22:02 | 43.31663 | -110.87883 | 12162 ft | 239 kts | 19° |
| 2026-04-30 22:03 | 43.33219 | -110.87129 | 11831 ft | 234 kts | 19° |
| 2026-04-30 22:03 | 43.34657 | -110.86432 | 11573 ft | 197 kts | 19° |
| 2026-04-30 22:03 | 43.35787 | -110.85889 | 11301 ft | 158 kts | 19° |
| 2026-04-30 22:03 | 43.36804 | -110.85402 | 11132 ft | 155 kts | 19° |
| 2026-04-30 22:04 | 43.37824 | -110.84896 | 10947 ft | 160 kts | 19° |
| 2026-04-30 22:04 | 43.38892 | -110.84385 | 10734 ft | 162 kts | 19° |
| 2026-04-30 22:04 | 43.40999 | -110.83368 | 10296 ft | 161 kts | 19° |
| 2026-04-30 22:05 | 43.42058 | -110.82856 | 10087 ft | 162 kts | 19° |
| 2026-04-30 22:05 | 43.43118 | -110.82340 | 9870 ft | 161 kts | 19° |
| 2026-04-30 22:05 | 43.44177 | -110.81831 | 9660 ft | 161 kts | 19° |
| 2026-04-30 22:05 | 43.45236 | -110.81309 | 9438 ft | 160 kts | 19° |
| 2026-04-30 22:06 | 43.46283 | -110.80806 | 9228 ft | 159 kts | 19° |
| 2026-04-30 22:06 | 43.48369 | -110.79785 | 8806 ft | 158 kts | 20° |
| 2026-04-30 22:06 | 43.49399 | -110.79286 | 8593 ft | 156 kts | 18° |
| 2026-04-30 22:07 | 43.50418 | -110.78807 | 8388 ft | 154 kts | 19° |
| 2026-04-30 22:07 | 43.51422 | -110.78312 | 8192 ft | 150 kts | 20° |
| 2026-04-30 22:07 | 43.52383 | -110.77856 | 7974 ft | 142 kts | 19° |
| 2026-04-30 22:07 | 43.53325 | -110.77383 | 7800 ft | 149 kts | 20° |
| 2026-04-30 22:08 | 43.54302 | -110.76903 | 7608 ft | 152 kts | 20° |
| 2026-04-30 22:08 | 43.55305 | -110.76419 | 7398 ft | 150 kts | 20° |
| 2026-04-30 22:08 | 43.56275 | -110.75946 | 7192 ft | 151 kts | 20° |
| 2026-04-30 22:08 | 43.57279 | -110.75464 | 6991 ft | 151 kts | 20° |
| 2026-04-30 22:09 | 43.58256 | -110.74987 | 6792 ft | 149 kts | 20° |
| 2026-04-30 22:09 | 43.59238 | -110.74503 | 6605 ft | 149 kts | 20° |
| 2026-04-30 22:09 | 43.60190 | -110.74020 | 6421 ft | 133 kts | 20° |
| 2026-04-30 22:09 | 43.60836 | -110.73728 | 6419 ft | 68 kts | 20° |
| 2026-04-30 22:10 | 43.61091 | -110.73595 | 6416 ft | 30 kts | 19° |
| 2026-04-30 22:10 | 43.61298 | -110.73493 | 6416 ft | 33 kts | 20° |
| 2026-04-30 22:10 | 43.61509 | -110.73330 | 6417 ft | 35 kts | 77° |
| 2026-04-30 22:10 | 43.61448 | -110.73200 | 6426 ft | 6 kts | 200° |
| 2026-04-30 22:11 | 43.60952 | -110.73503 | 6421 ft | 43 kts | 199° |
| 2026-04-30 22:11 | 43.60682 | -110.73640 | 6419 ft | 40 kts | 198° |
| 2026-04-30 22:11 | 43.60501 | -110.73726 | 6416 ft | 8 kts | 199° |
| 2026-04-30 22:12 | 43.60443 | -110.73739 | 6417 ft | 8 kts | 156° |
| 2026-04-30 22:12 | 43.60425 | -110.73696 | 6417 ft | 6 kts | 109° |
| 2026-04-30 22:12 | 43.60419 | -110.73672 | 6418 ft | 0 kts | 109° |